Ytteroyane Fyr, Norway

10:42 PM CEST on July 25, 2014 (GMT +0200)
Floro (ENFL) Elev 30 ft | 61.58 °N, 5.02 °E | Change Station

Current weather conditions updated 22 minutes ago

Partly Cloudy
Partly Cloudy
66 °F
Feels Like 66 °F
N
5
Wind Variable Wind from WNW

Tomorrow is forecast to be Much Cooler than today.

Today
High -- | Low -- °F
--% Chance of Precip.
Yesterday
High -- | Low -- °F
Precip. -- in
4:52 AM 10:41 PM
Waning Crescent, 1% visible
Pressure 30.15 in
Visibility 6.2 miles
Clouds Few 4000 ft
Dew Point 61 °F
Humidity 83%
Rainfall 0.00 in
Snow Depth Not available.
UV 0 out of 12
Pollen Not available.
Air Quality Not available.
Flu Activity Not available.
METAR ENFL 252020Z 29004KT 9999 FEW040 19/16 Q1021

More Conditions Fewer Conditions

Pressure 30.15 in
Visibility 6.2 miles
Clouds Few 4000 ft
Dew Point 61 °F
Humidity 83%
Rainfall 0.00 in
Snow Depth Not available.
UV 0 out of 12
Pollen Not available.
Air Quality Not available.
Flu Activity Not available.
METAR ENFL 252020Z 29004KT 9999 FEW040 19/16 Q1021

More Conditions Fewer Conditions

10-Day Weather Forecast

Almanac

Astronomy

Jul. 25, 2014 Rise Set
Actual Time 4:52 AM CEST 10:41 PM CEST
Civil Twilight 3:34 AM CEST 11:58 PM CEST
Nautical Twilight Sun does not rise Sun does not rise
Astronomical Twilight Sun does not rise Sun does not rise
Moon 3:51 AM CEST 9:08 PM CEST
Length of Visible Light 20h 24m
Length of Day
17h 49m
Tomorrow will be 5m 3s shorter.
Waning Crescent, 1% of the Moon is Illuminated
Today
Waning Crescent
Jul 26
New
Aug 3
First Quarter
Aug 10
Full
Aug 17
Last Quarter

Today's Extremes

Country Highs Country Lows

Community

WunderPhotos

Upload Photos

1,737,396 photos uploaded!

Nearby

Snow Depth

Not available.

Earthquake Activity

City Distance Mag. Time & Date
No recent earthquake activity has been reported nearby.
Minimum magnitude displayed is 2.5.

Coastal Water Temperatures

Place Temperature
No Stations Reporting

Nearby Weather Stations

Station Location Temp. Heat Index Dew Point Humidity Wind Precip. Elev Updated Type
Botnaholten, Floro 74.3 °F 76 °F 63 °F 68% SE  at  3.1 mph 0.00 in / hr 260 ft 10:42 PM CEST Rapid Fire

Show More Stations Show Fewer Stations